Time;durP1;ratioP1;P1;durP2;ratioP2;P2;SDS_P1;SDS_P2;PMS_P1;PMS_P2;Temp;Humidity;BMP_temperature;BMP_pressure;BME280_temperature;BME280_humidity;BME280_pressure;Samples;Min_cycle;Max_cycle;Signal;HPM_P1;HPM_P2
2022/12/13 00:01:31;;;;;;;42.33;21.67;;;-1.60;99.90;;;;;;5093623;28;20531;-72
2022/12/13 00:04:00;;;;;;;44.53;21.70;;;-1.60;99.90;;;;;;5093603;28;20193;-71
2022/12/13 00:06:26;;;;;;;45.53;21.73;;;-1.60;99.90;;;;;;5075062;28;20182;-72
2022/12/13 00:08:52;;;;;;;42.40;20.67;;;-1.60;99.90;;;;;;5093351;28;20182;-72
2022/12/13 00:11:18;;;;;;;43.87;22.00;;;-1.50;99.90;;;;;;5092462;28;20211;-72
2022/12/13 00:13:45;;;;;;;42.33;22.73;;;-1.50;99.90;;;;;;5074533;28;20213;-71
2022/12/13 00:16:14;;;;;;;39.60;20.87;;;-1.50;99.90;;;;;;5092399;28;20164;-71
2022/12/13 00:18:40;;;;;;;34.03;18.17;;;-1.50;99.90;;;;;;5091968;28;20167;-71
2022/12/13 00:21:08;;;;;;;34.83;17.60;;;-1.50;99.90;;;;;;5091835;28;20175;-71
2022/12/13 00:23:34;;;;;;;37.77;20.43;;;-1.40;99.90;;;;;;5092554;28;20167;-72
2022/12/13 00:26:09;;;;;;;37.47;18.93;;;-1.40;99.90;;;;;;5074079;28;20172;-71
2022/12/13 00:28:36;;;;;;;38.23;19.23;;;-1.40;99.90;;;;;;5092569;28;20164;-71
2022/12/13 00:31:02;;;;;;;41.97;20.67;;;-1.50;99.90;;;;;;5092411;28;20208;-72
2022/12/13 00:33:28;;;;;;;40.57;19.10;;;-1.50;99.90;;;;;;5092532;28;20243;-72
2022/12/13 00:35:54;;;;;;;31.80;16.77;;;-1.50;99.90;;;;;;5092015;28;20211;-72
2022/12/13 00:38:21;;;;;;;33.20;19.30;;;-1.50;99.90;;;;;;5073876;28;20168;-71
2022/12/13 00:40:46;;;;;;;35.63;17.87;;;-1.50;99.90;;;;;;5092206;28;20172;-72
2022/12/13 00:43:12;;;;;;;34.37;18.53;;;-1.50;99.90;;;;;;5074153;28;20176;-71
2022/12/13 00:45:38;;;;;;;32.57;17.10;;;-1.40;99.90;;;;;;5092260;28;20176;-71
2022/12/13 00:48:04;;;;;;;34.67;18.07;;;-1.40;99.90;;;;;;5092020;28;20214;-71
2022/12/13 00:50:31;;;;;;;43.63;22.10;;;-1.50;99.90;;;;;;5092099;28;20207;-71
2022/12/13 00:52:58;;;;;;;44.73;22.07;;;-1.50;99.90;;;;;;5091769;28;20165;-71
2022/12/13 00:55:23;;;;;;;34.23;18.20;;;-1.50;99.90;;;;;;5073662;28;20179;-71
2022/12/13 00:57:49;;;;;;;41.57;21.33;;;-1.50;99.90;;;;;;5092054;28;20309;-70
2022/12/13 01:00:15;;;;;;;42.10;22.47;;;-1.60;99.90;;;;;;5073883;28;20179;-71
2022/12/13 01:02:42;;;;;;;39.53;21.57;;;-1.60;99.90;;;;;;5073898;28;20275;-71
2022/12/13 01:05:08;;;;;;;40.13;21.30;;;-1.80;99.90;;;;;;5091979;28;20169;-72
2022/12/13 01:07:34;;;;;;;33.33;18.30;;;-1.80;99.90;;;;;;5091643;28;20168;-72
2022/12/13 01:10:00;;;;;;;39.57;21.60;;;-1.80;99.90;;;;;;5091921;28;20192;-70
2022/12/13 01:12:25;;;;;;;49.40;22.03;;;-1.70;99.90;;;;;;5048586;28;1236540;-71
2022/12/13 01:14:51;;;;;;;39.43;22.10;;;-1.80;99.90;;;;;;5092893;28;20213;-72
2022/12/13 01:17:17;;;;;;;36.53;19.47;;;-1.70;99.90;;;;;;5092742;28;20168;-71
2022/12/13 01:19:42;;;;;;;40.63;17.90;;;-1.80;99.90;;;;;;5092863;28;20171;-72
2022/12/13 01:22:10;;;;;;;38.27;18.83;;;-1.70;99.90;;;;;;5092605;28;20663;-71
2022/12/13 01:24:35;;;;;;;42.53;18.93;;;-1.80;99.90;;;;;;5074859;28;20535;-71
2022/12/13 01:27:01;;;;;;;39.33;20.97;;;-1.70;99.90;;;;;;5092769;28;20179;-71
2022/12/13 01:29:27;;;;;;;33.13;16.70;;;-1.70;99.90;;;;;;5092689;28;20171;-71
2022/12/13 01:31:53;;;;;;;35.90;18.73;;;-1.60;99.90;;;;;;5095125;28;20281;-71
2022/12/13 01:34:20;;;;;;;33.83;15.77;;;-1.60;99.90;;;;;;5096136;28;20172;-71
2022/12/13 01:36:47;;;;;;;30.20;16.07;;;-1.50;99.90;;;;;;5095827;28;20246;-71
2022/12/13 01:39:15;;;;;;;30.13;16.40;;;-1.50;99.90;;;;;;5096374;28;20161;-71
2022/12/13 01:41:43;;;;;;;31.80;16.90;;;-1.50;99.90;;;;;;5096148;28;20178;-71
2022/12/13 01:44:46;;;;;;;33.77;18.53;;;-1.50;99.90;;;;;;5096121;28;20166;-71
2022/12/13 01:47:16;;;;;;;31.00;16.23;;;-1.50;99.90;;;;;;5096051;28;20221;-70
2022/12/13 01:49:41;;;;;;;30.30;16.87;;;-1.50;99.90;;;;;;5095663;28;20168;-71
2022/12/13 01:52:11;;;;;;;32.50;16.83;;;-1.60;99.90;;;;;;5077565;28;20178;-71
2022/12/13 01:54:39;;;;;;;27.07;15.07;;;-1.50;99.90;;;;;;5096237;28;20564;-70
2022/12/13 01:57:07;;;;;;;29.27;16.93;;;-1.50;99.90;;;;;;5095610;28;20259;-72
2022/12/13 01:59:36;;;;;;;24.00;13.50;;;-1.40;99.90;;;;;;5077649;28;20172;-71
2022/12/13 02:02:02;;;;;;;29.30;15.33;;;-1.50;99.90;;;;;;5095727;28;20172;-71
2022/12/13 02:04:55;;;;;;;32.50;17.13;;;-1.50;99.90;;;;;;5095771;28;20647;-71
2022/12/13 02:07:25;;;;;;;25.67;14.60;;;-1.60;99.90;;;;;;5086313;28;20188;-71
2022/12/13 02:09:54;;;;;;;27.60;14.10;;;-1.50;99.90;;;;;;5095611;28;20246;-71
2022/12/13 02:12:20;;;;;;;27.23;14.50;;;-1.50;99.90;;;;;;5095147;28;20619;-71
2022/12/13 02:14:46;;;;;;;24.37;14.33;;;-1.40;99.90;;;;;;5095537;28;20164;-72
2022/12/13 02:17:14;;;;;;;24.57;14.73;;;-1.40;99.90;;;;;;5095447;28;20171;-72
2022/12/13 02:19:51;;;;;;;28.07;14.97;;;-1.40;99.90;;;;;;5095479;28;20187;-72
2022/12/13 02:22:20;;;;;;;24.07;13.10;;;-1.40;99.90;;;;;;5095417;28;20175;-71
2022/12/13 02:25:07;;;;;;;28.47;15.20;;;-1.40;99.90;;;;;;5095332;28;20172;-71
2022/12/13 02:28:04;;;;;;;24.90;13.53;;;-1.40;99.90;;;;;;5095338;28;20217;-71
2022/12/13 02:30:52;;;;;;;26.00;12.93;;;-1.40;99.90;;;;;;5095095;28;20211;-71
2022/12/13 02:33:39;;;;;;;27.60;14.77;;;-1.40;99.90;;;;;;5095154;28;20171;-71
2022/12/13 02:36:29;;;;;;;27.13;15.20;;;-1.40;99.90;;;;;;5094579;28;20215;-71
2022/12/13 02:39:24;;;;;;;22.33;13.40;;;-1.50;99.90;;;;;;5085163;28;20569;-70
2022/12/13 02:41:53;;;;;;;23.30;14.10;;;-1.50;99.90;;;;;;5094604;28;20308;-72
2022/12/13 02:44:26;;;;;;;31.67;15.27;;;-1.50;99.90;;;;;;5095019;28;20178;-71
2022/12/13 02:47:00;;;;;;;25.60;14.80;;;-1.50;99.90;;;;;;5094723;28;20182;-71
2022/12/13 02:49:30;;;;;;;28.00;15.10;;;-1.50;99.90;;;;;;5094498;28;20221;-70
2022/12/13 02:51:57;;;;;;;26.50;14.50;;;-1.50;99.90;;;;;;5094881;28;20178;-71
2022/12/13 02:54:23;;;;;;;22.70;13.87;;;-1.50;99.90;;;;;;5094872;28;20225;-70
2022/12/13 02:56:54;;;;;;;26.23;14.03;;;-1.50;99.90;;;;;;5094686;28;20534;-71
2022/12/13 02:59:20;;;;;;;28.23;14.03;;;-1.40;99.90;;;;;;5094604;28;20168;-71
2022/12/13 03:01:56;;;;;;;27.00;14.33;;;-1.40;99.90;;;;;;5094484;28;20175;-71
2022/12/13 03:04:27;;;;;;;24.30;14.33;;;-1.40;99.90;;;;;;5094288;28;20197;-70
2022/12/13 03:07:11;;;;;;;27.73;15.50;;;-1.40;99.90;;;;;;5094554;28;20172;-71
2022/12/13 03:09:42;;;;;;;25.77;14.20;;;-1.40;99.90;;;;;;5094730;28;20631;-70
2022/12/13 03:15:17;;;;;;;22.93;14.70;;;-1.50;99.90;;;;;;5094578;28;20554;-71
2022/12/13 03:18:14;;;;;;;24.80;14.87;;;-1.50;99.90;;;;;;5094027;28;20180;-71
2022/12/13 03:20:51;;;;;;;24.50;13.47;;;-1.50;99.90;;;;;;5094234;28;20174;-70
2022/12/13 03:23:18;;;;;;;26.00;14.33;;;-1.50;99.90;;;;;;5094184;28;20172;-70
2022/12/13 03:25:48;;;;;;;24.97;14.40;;;-1.60;99.90;;;;;;5094331;28;20172;-70
2022/12/13 03:28:14;;;;;;;21.47;13.50;;;-1.60;99.90;;;;;;5094257;28;20181;-71
2022/12/13 03:30:39;;;;;;;24.63;14.33;;;-1.60;99.90;;;;;;5094088;28;20213;-70
2022/12/13 03:33:05;;;;;;;26.60;14.87;;;-1.60;99.90;;;;;;5094119;28;20512;-71
2022/12/13 03:35:31;;;;;;;24.27;14.50;;;-1.60;99.90;;;;;;5093869;28;20231;-71
2022/12/13 03:37:58;;;;;;;25.07;13.70;;;-1.60;99.90;;;;;;5094137;28;20205;-70
2022/12/13 03:40:24;;;;;;;23.50;12.87;;;-1.60;99.90;;;;;;5094045;28;20172;-71
2022/12/13 03:42:49;;;;;;;25.70;14.57;;;-1.50;99.90;;;;;;5093884;28;20768;-70
2022/12/13 03:45:17;;;;;;;24.40;13.63;;;-1.60;99.90;;;;;;5093751;28;20171;-70
2022/12/13 03:47:43;;;;;;;24.13;13.77;;;-1.60;99.90;;;;;;5075275;28;20168;-70
2022/12/13 03:50:08;;;;;;;25.33;13.83;;;-1.60;99.90;;;;;;5093603;28;20210;-71
2022/12/13 03:52:34;;;;;;;19.23;10.70;;;-1.60;99.90;;;;;;5093746;28;20164;-70
2022/12/13 03:55:00;;;;;;;22.63;13.13;;;-1.70;99.90;;;;;;5093373;28;20175;-71
2022/12/13 03:57:25;;;;;;;22.37;13.67;;;-1.70;99.90;;;;;;5093828;28;20254;-71
2022/12/13 03:59:51;;;;;;;26.83;13.30;;;-1.70;99.90;;;;;;5093722;28;20215;-70
2022/12/13 04:02:16;;;;;;;28.30;15.90;;;-1.80;99.90;;;;;;5093134;28;20183;-70
2022/12/13 04:04:42;;;;;;;26.70;15.20;;;-1.80;99.90;;;;;;5093490;28;20269;-71
2022/12/13 04:07:08;;;;;;;28.90;14.70;;;-1.80;99.90;;;;;;5093523;28;20179;-70
2022/12/13 04:09:33;;;;;;;24.93;14.00;;;-1.70;99.90;;;;;;5093578;28;20165;-71
2022/12/13 04:14:43;;;;;;;26.47;14.00;;;-1.70;99.90;;;;;;5093305;28;20232;-71
2022/12/13 04:17:08;;;;;;;22.97;14.57;;;-1.70;99.90;;;;;;5093029;28;20174;-71
2022/12/13 04:19:34;;;;;;;25.33;14.47;;;-1.70;99.90;;;;;;5093293;28;20179;-70
2022/12/13 04:22:00;;;;;;;25.03;14.23;;;-1.70;99.90;;;;;;5093199;28;20187;-72
2022/12/13 04:24:25;;;;;;;27.50;16.13;;;-1.80;99.90;;;;;;5093231;28;20285;-71
2022/12/13 04:26:51;;;;;;;23.57;14.63;;;-1.90;99.90;;;;;;5075150;28;20210;-71
2022/12/13 04:29:16;;;;;;;29.20;16.73;;;-1.90;99.90;;;;;;5093103;28;20176;-71
2022/12/13 04:31:42;;;;;;;31.13;18.37;;;-1.90;99.90;;;;;;5092856;28;20233;-71
2022/12/13 04:34:08;;;;;;;31.20;17.13;;;-2.00;99.90;;;;;;5093008;28;20539;-71
2022/12/13 04:36:33;;;;;;;30.33;17.37;;;-2.10;99.90;;;;;;5092728;28;20168;-71
2022/12/13 04:39:01;;;;;;;27.80;16.70;;;-2.20;99.90;;;;;;5093197;28;20239;-72
2022/12/13 04:41:27;;;;;;;30.10;16.47;;;-2.10;99.90;;;;;;5092918;28;20183;-71
2022/12/13 04:43:53;;;;;;;28.63;16.40;;;-2.10;99.90;;;;;;5092893;28;20214;-71
2022/12/13 04:46:19;;;;;;;31.03;16.63;;;-2.20;99.90;;;;;;5092637;28;20229;-71
2022/12/13 04:48:46;;;;;;;32.13;16.97;;;-2.10;99.90;;;;;;5092953;28;20171;-71
2022/12/13 04:51:15;;;;;;;32.67;18.47;;;-2.00;99.90;;;;;;5093005;28;20203;-72
2022/12/13 04:53:41;;;;;;;32.20;17.80;;;-2.10;99.90;;;;;;5075301;28;20210;-70
2022/12/13 04:56:06;;;;;;;28.03;17.00;;;-2.00;99.90;;;;;;5092229;28;20620;-71
2022/12/13 04:58:32;;;;;;;28.47;16.50;;;-2.00;99.90;;;;;;5092906;28;20175;-71
2022/12/13 05:00:58;;;;;;;22.70;13.30;;;-2.10;99.90;;;;;;5092370;28;20702;-72
2022/12/13 05:03:24;;;;;;;29.43;17.07;;;-2.20;99.90;;;;;;5074853;28;20168;-72
2022/12/13 05:05:50;;;;;;;28.00;16.73;;;-2.10;99.90;;;;;;5093905;28;20179;-72
2022/12/13 05:08:15;;;;;;;33.17;17.47;;;-2.20;99.90;;;;;;5096432;28;20186;-72
2022/12/13 05:10:41;;;;;;;28.53;16.90;;;-2.20;99.90;;;;;;5096236;28;20286;-71
2022/12/13 05:13:07;;;;;;;26.90;15.17;;;-2.20;99.90;;;;;;5096066;28;20211;-72
2022/12/13 05:15:32;;;;;;;27.77;15.23;;;-2.30;99.90;;;;;;5096151;28;20249;-70
2022/12/13 05:18:03;;;;;;;25.53;14.00;;;-2.30;99.90;;;;;;5096635;28;20174;-71
2022/12/13 05:20:28;;;;;;;29.97;15.77;;;-2.30;99.90;;;;;;5078306;28;20178;-71
2022/12/13 05:22:56;;;;;;;27.50;16.10;;;-2.30;99.90;;;;;;5096501;28;20521;-72
2022/12/13 05:25:24;;;;;;;26.70;15.83;;;-2.30;99.90;;;;;;5095726;28;20157;-71
2022/12/13 05:27:51;;;;;;;29.73;15.90;;;-2.30;99.90;;;;;;5078047;28;20182;-71
2022/12/13 05:30:17;;;;;;;28.50;16.10;;;-2.40;99.90;;;;;;5095843;28;20205;-71
2022/12/13 05:32:42;;;;;;;29.33;15.57;;;-2.40;99.90;;;;;;5096131;28;20215;-71
2022/12/13 05:35:08;;;;;;;31.20;15.77;;;-2.40;99.90;;;;;;5095954;28;20190;-70
2022/12/13 05:37:34;;;;;;;31.80;17.47;;;-2.40;99.90;;;;;;5096110;28;20225;-71
2022/12/13 05:39:59;;;;;;;29.40;16.97;;;-2.50;99.90;;;;;;5095714;28;20719;-71
2022/12/13 05:42:25;;;;;;;22.83;14.30;;;-2.50;99.90;;;;;;5095722;28;20176;-72
2022/12/13 05:44:52;;;;;;;28.83;16.13;;;-2.50;99.90;;;;;;5095456;28;20215;-72
2022/12/13 05:47:17;;;;;;;25.57;15.73;;;-2.50;99.90;;;;;;5096028;28;20167;-72
2022/12/13 05:49:43;;;;;;;28.57;16.07;;;-2.50;99.90;;;;;;5095591;28;20577;-71
2022/12/13 05:52:20;;;;;;;30.53;16.13;;;-2.50;99.90;;;;;;5095396;28;20565;-71
2022/12/13 05:54:45;;;;;;;29.67;15.27;;;-2.50;99.90;;;;;;5095351;28;20607;-71
2022/12/13 05:57:11;;;;;;;25.80;15.77;;;-2.50;99.90;;;;;;5095657;28;20181;-73
2022/12/13 05:59:37;;;;;;;28.70;16.63;;;-2.50;99.90;;;;;;5095250;28;20168;-72
2022/12/13 06:02:03;;;;;;;38.07;18.10;;;-2.50;99.90;;;;;;5095104;28;20174;-71
2022/12/13 06:04:28;;;;;;;34.77;17.93;;;-2.50;99.90;;;;;;5095064;28;20175;-72
2022/12/13 06:06:54;;;;;;;28.93;16.77;;;-2.50;99.90;;;;;;5095457;28;20266;-72
2022/12/13 06:09:20;;;;;;;35.63;17.90;;;-2.50;99.90;;;;;;5095047;28;20174;-72
2022/12/13 06:11:46;;;;;;;30.27;17.07;;;-2.60;99.90;;;;;;5094319;28;20228;-72
2022/12/13 06:14:13;;;;;;;36.07;19.00;;;-2.70;99.90;;;;;;5094736;28;20178;-72
2022/12/13 06:16:38;;;;;;;34.37;18.03;;;-2.70;99.90;;;;;;5094577;28;20264;-72
2022/12/13 06:19:04;;;;;;;39.20;19.40;;;-2.60;99.90;;;;;;5094946;28;20315;-72
2022/12/13 06:21:31;;;;;;;29.87;17.67;;;-2.60;99.90;;;;;;5094440;28;20662;-73
2022/12/13 06:23:57;;;;;;;35.10;19.17;;;-2.60;99.90;;;;;;5094453;28;20172;-72
2022/12/13 06:26:23;;;;;;;33.40;18.50;;;-2.70;99.90;;;;;;5094282;28;20175;-72
2022/12/13 06:28:48;;;;;;;33.73;18.80;;;-2.70;99.90;;;;;;5094566;28;20257;-72
2022/12/13 06:31:14;;;;;;;33.23;17.30;;;-2.80;99.90;;;;;;5094327;28;20695;-72
2022/12/13 06:33:39;;;;;;;31.67;16.40;;;-2.80;99.90;;;;;;5094767;28;20174;-71
2022/12/13 06:36:06;;;;;;;33.10;17.73;;;-2.90;99.90;;;;;;5094231;28;20271;-73
2022/12/13 06:38:31;;;;;;;35.87;18.30;;;-3.10;99.90;;;;;;5094055;28;20258;-73
2022/12/13 06:41:11;;;;;;;31.63;17.43;;;-3.10;99.90;;;;;;5094014;28;20250;-73
2022/12/13 06:43:40;;;;;;;36.20;17.97;;;-3.00;99.90;;;;;;5094883;28;20192;-71
2022/12/13 06:46:05;;;;;;;31.63;18.00;;;-3.10;99.90;;;;;;5094074;28;20162;-73
2022/12/13 06:48:31;;;;;;;31.70;17.10;;;-3.00;99.90;;;;;;5093277;28;20271;-72
2022/12/13 06:51:01;;;;;;;31.87;17.13;;;-3.00;99.90;;;;;;5093592;28;20209;-73
2022/12/13 06:53:27;;;;;;;32.63;17.83;;;-3.00;99.90;;;;;;5094122;28;20224;-73
2022/12/13 06:55:53;;;;;;;31.33;15.93;;;-3.00;99.90;;;;;;5093568;28;20171;-72
2022/12/13 06:58:19;;;;;;;32.40;17.10;;;-3.00;99.90;;;;;;5094290;28;20164;-73
2022/12/13 07:00:44;;;;;;;28.83;17.03;;;-3.00;99.90;;;;;;5093693;28;20173;-73
2022/12/13 07:03:11;;;;;;;36.20;17.13;;;-3.00;99.90;;;;;;5093560;28;20176;-73
2022/12/13 07:05:37;;;;;;;35.13;17.30;;;-3.00;99.90;;;;;;5093653;28;20175;-73
2022/12/13 07:08:03;;;;;;;33.53;17.97;;;-3.10;99.90;;;;;;5093203;28;20273;-74
2022/12/13 07:10:29;;;;;;;32.90;18.17;;;-3.10;99.90;;;;;;5092417;28;20221;-73
2022/12/13 07:12:55;;;;;;;37.63;19.33;;;-3.10;99.90;;;;;;5093084;28;20225;-73
2022/12/13 07:15:20;;;;;;;38.07;19.97;;;-3.00;99.90;;;;;;5075184;28;20174;-72
2022/12/13 07:17:50;;;;;;;36.00;18.67;;;-3.10;99.90;;;;;;5093623;28;20164;-74
2022/12/13 07:20:17;;;;;;;38.00;19.20;;;-3.20;99.90;;;;;;5093296;28;20172;-73
2022/12/13 07:22:43;;;;;;;33.60;18.43;;;-3.20;99.90;;;;;;5093921;28;20182;-74
2022/12/13 07:25:09;;;;;;;35.23;19.37;;;-3.20;99.90;;;;;;5092646;28;20176;-75
2022/12/13 07:27:35;;;;;;;33.80;18.97;;;-3.30;99.90;;;;;;5093117;28;20169;-73
2022/12/13 07:30:02;;;;;;;35.47;18.97;;;-3.30;99.90;;;;;;5093094;28;20251;-73
2022/12/13 07:32:28;;;;;;;36.57;18.63;;;-3.30;99.90;;;;;;5092932;28;20171;-73
2022/12/13 07:34:53;;;;;;;30.07;17.33;;;-3.20;99.90;;;;;;5092213;28;20185;-74
2022/12/13 07:37:19;;;;;;;30.50;17.93;;;-3.10;99.90;;;;;;5093435;28;20170;-74
2022/12/13 07:39:45;;;;;;;35.07;17.90;;;-3.10;99.90;;;;;;5093355;28;20222;-73
2022/12/13 07:42:11;;;;;;;34.83;19.00;;;-3.10;99.90;;;;;;5093683;28;20169;-72
2022/12/13 07:44:36;;;;;;;35.07;19.07;;;-3.10;99.90;;;;;;5092859;28;20620;-74
2022/12/13 07:47:02;;;;;;;30.03;17.87;;;-3.00;99.90;;;;;;5092966;28;20633;-73
2022/12/13 07:49:27;;;;;;;33.33;18.90;;;-3.00;99.90;;;;;;5092436;28;20194;-74
2022/12/13 07:51:53;;;;;;;36.60;18.63;;;-2.90;99.90;;;;;;5093006;28;20630;-73
2022/12/13 07:54:19;;;;;;;32.17;17.97;;;-2.90;99.90;;;;;;5092479;28;20645;-74
2022/12/13 07:56:45;;;;;;;30.47;18.03;;;-2.90;99.90;;;;;;5092769;28;20299;-72
2022/12/13 07:59:10;;;;;;;34.03;18.60;;;-2.80;99.90;;;;;;5093011;28;20270;-73
2022/12/13 08:01:36;;;;;;;32.57;18.60;;;-2.70;99.90;;;;;;5092604;28;20182;-72
2022/12/13 08:04:03;;;;;;;33.57;17.97;;;-2.70;99.90;;;;;;5074705;28;20164;-73
2022/12/13 08:06:33;;;;;;;36.50;20.00;;;-2.60;99.90;;;;;;5092615;28;20164;-73
2022/12/13 08:08:58;;;;;;;36.90;19.10;;;-2.60;99.90;;;;;;5092369;28;20486;-74
2022/12/13 08:11:24;;;;;;;30.27;17.60;;;-2.50;99.90;;;;;;5091776;28;20676;-71
2022/12/13 08:13:52;;;;;;;33.43;19.03;;;-2.50;99.90;;;;;;5072191;28;20179;-71
2022/12/13 08:16:17;;;;;;;38.10;18.47;;;-2.40;99.90;;;;;;5092530;28;20224;-74
2022/12/13 08:18:46;;;;;;;33.73;18.87;;;-2.40;99.90;;;;;;5092784;28;20167;-73
2022/12/13 08:21:12;;;;;;;30.67;17.53;;;-2.30;99.90;;;;;;5074044;28;20526;-74
2022/12/13 08:23:37;;;;;;;31.97;18.17;;;-2.20;99.90;;;;;;5091971;28;20228;-73
2022/12/13 08:26:05;;;;;;;33.80;18.43;;;-2.20;99.90;;;;;;5092554;28;20170;-73
2022/12/13 08:28:32;;;;;;;34.77;18.97;;;-2.10;99.90;;;;;;5092569;28;20184;-71
2022/12/13 08:31:06;;;;;;;30.77;17.50;;;-2.10;99.90;;;;;;5092021;28;20214;-72
2022/12/13 08:33:33;;;;;;;33.50;19.00;;;-2.00;99.90;;;;;;5074085;28;20265;-71
2022/12/13 08:36:07;;;;;;;35.60;20.30;;;-1.40;99.90;;;;;;5091972;28;20304;-69
2022/12/13 08:38:33;;;;;;;29.67;15.17;;;-0.50;99.90;;;;;;5091726;28;20266;-71
2022/12/13 08:40:58;;;;;;;29.23;16.10;;;0.10;99.90;;;;;;5093305;28;20179;-70
2022/12/13 08:43:24;;;;;;;26.13;15.83;;;0.50;99.90;;;;;;5094868;28;20219;-70
2022/12/13 08:45:50;;;;;;;26.73;16.27;;;1.00;99.90;;;;;;5096350;28;20164;-70
2022/12/13 08:48:15;;;;;;;28.40;15.40;;;1.50;99.90;;;;;;5096095;28;20654;-70
2022/12/13 08:50:41;;;;;;;26.07;15.60;;;1.90;99.90;;;;;;5095797;28;20218;-70
2022/12/13 08:53:06;;;;;;;29.13;15.63;;;2.10;99.90;;;;;;5095663;28;20296;-71
2022/12/13 08:55:32;;;;;;;27.47;16.37;;;2.90;99.90;;;;;;5095322;28;20172;-70
2022/12/13 08:57:58;;;;;;;23.53;15.67;;;3.70;99.90;;;;;;5095889;28;20203;-70
2022/12/13 09:00:23;;;;;;;23.33;16.10;;;4.40;99.50;;;;;;5095580;28;20179;-70
2022/12/13 09:02:49;;;;;;;25.73;15.57;;;4.50;97.10;;;;;;5096198;28;20213;-70
2022/12/13 09:05:15;;;;;;;27.20;15.27;;;4.80;96.30;;;;;;5096845;28;20172;-70
2022/12/13 09:07:42;;;;;;;24.23;15.87;;;4.50;96.00;;;;;;5095691;28;20229;-70
2022/12/13 09:10:11;;;;;;;24.63;16.37;;;4.80;96.70;;;;;;5095753;28;20202;-70
2022/12/13 09:12:40;;;;;;;25.07;16.10;;;4.60;95.70;;;;;;5095418;28;20351;-70
2022/12/13 09:15:06;;;;;;;25.10;16.00;;;4.10;97.00;;;;;;5094887;28;20168;-70
2022/12/13 09:17:32;;;;;;;24.67;16.57;;;4.10;96.80;;;;;;5095272;28;20553;-69
2022/12/13 09:19:57;;;;;;;25.40;17.03;;;4.00;97.80;;;;;;5095434;28;20180;-71
2022/12/13 09:22:23;;;;;;;21.50;15.60;;;4.50;96.80;;;;;;5095450;28;20641;-70
2022/12/13 09:24:48;;;;;;;26.97;15.00;;;4.90;95.20;;;;;;5093640;28;20228;-70
2022/12/13 09:27:14;;;;;;;23.40;15.87;;;4.50;94.40;;;;;;5095209;28;20183;-69
2022/12/13 09:29:40;;;;;;;24.30;16.20;;;4.10;95.80;;;;;;5095267;28;20172;-70
2022/12/13 09:32:05;;;;;;;29.50;17.40;;;4.10;97.70;;;;;;5095334;28;20223;-69
2022/12/13 09:34:33;;;;;;;23.40;14.80;;;4.60;97.20;;;;;;5095239;28;20196;-69
2022/12/13 09:36:59;;;;;;;25.90;16.67;;;4.30;95.00;;;;;;5094985;28;20630;-70
2022/12/13 09:39:25;;;;;;;25.13;16.10;;;4.70;96.60;;;;;;5094397;28;20251;-69
2022/12/13 09:41:54;;;;;;;29.37;16.20;;;4.30;95.60;;;;;;5095549;28;20715;-69
2022/12/13 09:44:24;;;;;;;30.80;17.80;;;4.50;96.30;;;;;;5095438;28;20195;-70
2022/12/13 09:46:53;;;;;;;27.50;17.13;;;4.70;96.20;;;;;;5095543;28;20611;-70
2022/12/13 09:49:34;;;;;;;17.53;13.47;;;5.10;94.30;;;;;;5094678;28;20168;-69
2022/12/13 09:52:03;;;;;;;27.00;14.47;;;4.60;94.30;;;;;;5094860;28;20292;-70
2022/12/13 09:54:28;;;;;;;25.00;15.30;;;4.10;95.40;;;;;;5095287;28;20191;-69
2022/12/13 09:56:56;;;;;;;22.00;14.00;;;4.30;96.70;;;;;;5095376;28;20207;-70
2022/12/13 09:59:32;;;;;;;22.83;15.07;;;3.30;96.70;;;;;;5094622;28;20195;-70
2022/12/13 10:02:13;;;;;;;29.17;15.00;;;3.70;97.70;;;;;;5094427;28;20273;-70
2022/12/13 10:04:38;;;;;;;21.93;13.97;;;3.90;97.10;;;;;;5095169;28;20168;-70
2022/12/13 10:07:11;;;;;;;24.17;15.57;;;4.10;96.90;;;;;;5094774;28;20164;-70
2022/12/13 10:09:37;;;;;;;24.87;15.57;;;4.60;95.80;;;;;;5095130;28;20172;-69
2022/12/13 10:12:03;;;;;;;24.20;16.07;;;4.30;96.00;;;;;;5094386;28;20685;-70
2022/12/13 10:14:39;;;;;;;22.27;13.53;;;4.50;96.80;;;;;;5094905;28;20624;-70
2022/12/13 10:17:08;;;;;;;19.63;13.50;;;4.80;95.20;;;;;;5094402;28;20172;-70
2022/12/13 10:19:42;;;;;;;20.23;13.57;;;5.30;93.00;;;;;;5094524;28;20168;-70
2022/12/13 10:22:12;;;;;;;18.30;12.57;;;4.10;95.00;;;;;;5094831;28;20167;-69
2022/12/13 10:24:53;;;;;;;18.70;12.20;;;2.90;97.80;;;;;;5094921;28;20156;-69
2022/12/13 10:27:34;;;;;;;22.73;14.33;;;2.60;99.10;;;;;;5094409;28;20178;-70
2022/12/13 10:30:01;;;;;;;18.63;13.10;;;3.00;99.90;;;;;;5094324;28;20209;-70
2022/12/13 10:32:27;;;;;;;22.53;13.73;;;3.50;98.10;;;;;;5093736;28;20610;-71
2022/12/13 10:34:54;;;;;;;22.27;13.70;;;3.40;98.10;;;;;;5094739;28;20668;-71
2022/12/13 10:37:22;;;;;;;21.70;13.47;;;3.70;98.00;;;;;;5094269;28;20216;-71
2022/12/13 10:39:48;;;;;;;22.17;13.77;;;3.60;97.50;;;;;;5094126;28;20172;-70
2022/12/13 10:42:17;;;;;;;23.40;13.40;;;3.20;97.60;;;;;;5094539;28;20241;-70
2022/12/13 10:44:43;;;;;;;18.00;11.67;;;2.80;98.90;;;;;;5094563;28;20168;-71
2022/12/13 10:47:08;;;;;;;17.17;10.63;;;2.40;98.90;;;;;;5093863;28;20578;-69
2022/12/13 10:49:46;;;;;;;20.10;13.20;;;2.30;99.50;;;;;;5094039;28;20203;-71
2022/12/13 10:52:28;;;;;;;19.73;13.30;;;2.30;99.90;;;;;;5093425;28;20692;-70
2022/12/13 10:54:56;;;;;;;18.77;12.40;;;2.70;99.90;;;;;;5094279;28;20225;-70
2022/12/13 10:57:22;;;;;;;19.27;12.83;;;2.70;99.30;;;;;;5093563;28;20178;-71
2022/12/13 10:59:49;;;;;;;22.33;14.37;;;3.30;99.20;;;;;;5094453;28;20164;-70
2022/12/13 11:02:28;;;;;;;22.77;14.73;;;3.50;98.30;;;;;;5093590;28;20164;-70
2022/12/13 11:04:55;;;;;;;17.87;12.67;;;3.50;98.10;;;;;;5092383;28;20175;-70
2022/12/13 11:07:30;;;;;;;23.17;12.80;;;3.70;97.60;;;;;;5094178;28;20176;-70
2022/12/13 11:10:13;;;;;;;22.57;13.93;;;4.10;96.20;;;;;;5093665;28;20170;-70
2022/12/13 11:12:40;;;;;;;29.43;16.70;;;4.30;96.70;;;;;;5093507;28;20219;-70
2022/12/13 11:15:12;;;;;;;19.83;12.87;;;3.20;97.90;;;;;;5093906;28;20206;-69
2022/12/13 11:17:52;;;;;;;18.33;11.93;;;3.30;98.20;;;;;;5093003;28;20171;-70
2022/12/13 11:20:28;;;;;;;20.07;13.27;;;3.90;96.40;;;;;;5093372;28;20172;-71
2022/12/13 11:23:25;;;;;;;17.97;12.77;;;4.10;96.30;;;;;;5093598;28;20172;-71
2022/12/13 11:25:59;;;;;;;23.90;15.53;;;4.10;96.90;;;;;;5082082;28;20287;-70
2022/12/13 11:28:51;;;;;;;21.70;14.60;;;4.20;96.10;;;;;;5093590;28;20175;-70
2022/12/13 11:31:32;;;;;;;19.47;12.80;;;3.50;97.10;;;;;;5093430;28;20227;-70
2022/12/13 11:34:19;;;;;;;20.80;13.13;;;3.40;98.80;;;;;;5092565;28;20256;-71
2022/12/13 11:36:52;;;;;;;23.00;13.03;;;3.00;98.60;;;;;;5092877;28;20175;-71
2022/12/13 11:39:20;;;;;;;23.07;13.43;;;2.70;99.90;;;;;;5093654;28;20245;-70
2022/12/13 11:42:13;;;;;;;19.60;13.20;;;2.70;99.90;;;;;;5093525;28;20164;-70
2022/12/13 11:44:49;;;;;;;17.07;11.33;;;2.80;99.90;;;;;;5093458;28;20164;-71
2022/12/13 11:47:23;;;;;;;20.17;12.23;;;2.40;99.90;;;;;;5091938;28;20210;-71
2022/12/13 11:49:49;;;;;;;22.40;13.70;;;2.10;99.90;;;;;;5093311;28;20170;-71
2022/12/13 11:52:28;;;;;;;26.73;14.87;;;2.30;99.90;;;;;;5092830;28;20180;-71
2022/12/13 11:54:57;;;;;;;24.00;14.47;;;2.00;99.90;;;;;;5092925;28;20217;-70
2022/12/13 11:57:51;;;;;;;19.50;12.60;;;1.90;99.90;;;;;;5092557;28;20170;-71
2022/12/13 12:00:30;;;;;;;20.37;12.17;;;1.80;99.90;;;;;;5092922;28;20246;-71
2022/12/13 12:03:12;;;;;;;28.83;15.20;;;1.70;99.90;;;;;;5092864;28;20172;-71
2022/12/13 12:05:45;;;;;;;25.13;14.53;;;1.60;99.90;;;;;;5092093;28;20574;-72
2022/12/13 12:08:22;;;;;;;27.93;15.40;;;1.60;99.90;;;;;;5092848;28;20167;-72
2022/12/13 12:10:59;;;;;;;30.73;17.00;;;1.60;99.90;;;;;;5092547;28;20206;-71
2022/12/13 12:13:33;;;;;;;20.93;11.97;;;1.90;99.90;;;;;;5092731;28;20221;-73
2022/12/13 12:15:58;;;;;;;25.17;14.13;;;1.70;99.90;;;;;;5092193;28;20188;-72
2022/12/13 12:18:24;;;;;;;28.33;16.07;;;1.40;99.90;;;;;;5092746;28;20581;-72
2022/12/13 12:21:04;;;;;;;23.63;14.63;;;1.50;99.90;;;;;;5093224;28;20301;-72
2022/12/13 12:23:57;;;;;;;24.47;13.43;;;1.80;99.90;;;;;;5092422;28;20275;-70
2022/12/13 12:26:30;;;;;;;24.47;13.10;;;1.80;99.90;;;;;;5092840;28;20175;-71
2022/12/13 12:29:11;;;;;;;26.20;14.13;;;1.60;99.90;;;;;;5092174;28;20166;-71
2022/12/13 12:31:50;;;;;;;25.33;14.23;;;1.60;99.90;;;;;;5092620;28;20206;-71
2022/12/13 12:34:39;;;;;;;24.03;13.47;;;1.50;99.90;;;;;;5092350;28;20282;-72
2022/12/13 12:37:37;;;;;;;26.13;13.97;;;1.60;99.90;;;;;;5092115;28;20175;-71
2022/12/13 12:40:08;;;;;;;16.00;9.27;;;1.60;99.90;;;;;;5010450;28;20186;-72
2022/12/13 12:42:48;;;;;;;26.20;14.17;;;1.40;99.90;;;;;;5010488;28;20181;-71
2022/12/13 12:45:20;;;;;;;22.50;13.67;;;1.50;99.90;;;;;;5009808;28;20182;-71
2022/12/13 12:48:23;;;;;;;23.80;14.47;;;1.60;99.90;;;;;;5010635;28;20174;-72